createdAt,value
2018-07-13T00:00:05.107Z,4.60
2018-07-13T00:02:33.732Z,4.77
2018-07-13T00:05:02.251Z,5.30
2018-07-13T00:07:30.903Z,4.57
2018-07-13T00:09:59.396Z,4.93
2018-07-13T00:12:28.068Z,5.57
2018-07-13T00:15:02.083Z,5.40
2018-07-13T00:17:30.556Z,5.27
2018-07-13T00:19:59.059Z,5.30
2018-07-13T00:22:27.628Z,4.80
2018-07-13T00:24:56.319Z,5.17
2018-07-13T00:27:24.890Z,4.60
2018-07-13T00:29:53.469Z,4.77
2018-07-13T00:32:22.055Z,4.87
2018-07-13T00:34:50.636Z,4.67
2018-07-13T00:37:19.218Z,3.90
2018-07-13T00:39:47.807Z,4.13
2018-07-13T00:42:16.488Z,4.47
2018-07-13T00:44:44.991Z,4.83
2018-07-13T00:47:13.398Z,4.07
2018-07-13T00:49:42.082Z,4.23
2018-07-13T00:52:10.638Z,4.37
2018-07-13T00:54:39.402Z,4.60
2018-07-13T00:57:07.986Z,4.60
2018-07-13T00:59:36.575Z,5.27
2018-07-13T01:02:05.152Z,4.53
2018-07-13T01:04:33.655Z,4.57
2018-07-13T01:07:02.318Z,4.23
2018-07-13T01:09:30.909Z,4.07
2018-07-13T01:11:59.585Z,3.93
2018-07-13T01:14:28.172Z,4.63
2018-07-13T01:16:56.815Z,3.90
2018-07-13T01:19:25.437Z,4.50
2018-07-13T01:21:54.111Z,5.03
2018-07-13T01:24:22.715Z,4.50
2018-07-13T01:26:51.492Z,4.33
2018-07-13T01:29:20.181Z,4.33
2018-07-13T01:31:48.964Z,4.20
2018-07-13T01:34:17.559Z,4.37
2018-07-13T01:36:45.984Z,4.27
2018-07-13T01:39:14.820Z,4.27
2018-07-13T01:41:43.505Z,4.20
2018-07-13T01:44:12.194Z,4.50
2018-07-13T01:46:40.773Z,4.53
2018-07-13T01:49:09.455Z,4.33
2018-07-13T01:51:38.046Z,4.33
2018-07-13T01:54:06.647Z,4.60
2018-07-13T01:56:35.512Z,4.37
2018-07-13T01:59:04.209Z,4.20
2018-07-13T02:01:32.651Z,4.23
2018-07-13T02:04:01.265Z,4.20
2018-07-13T02:06:29.846Z,4.50
2018-07-13T02:08:58.530Z,4.90
2018-07-13T02:11:26.969Z,7.03
2018-07-13T02:13:55.596Z,5.20
2018-07-13T02:16:24.294Z,4.80
2018-07-13T02:18:52.860Z,4.70
2018-07-13T02:21:21.364Z,4.50
2018-07-13T02:23:49.925Z,4.80
2018-07-13T02:26:18.716Z,4.40
2018-07-13T02:28:47.319Z,4.00
2018-07-13T02:31:15.867Z,4.67
2018-07-13T02:33:44.470Z,4.50
2018-07-13T02:36:13.048Z,4.57
2018-07-13T02:38:41.761Z,4.40
2018-07-13T02:41:10.313Z,4.73
2018-07-13T02:43:38.894Z,3.87
2018-07-13T02:46:07.399Z,4.50
2018-07-13T02:48:35.968Z,4.43
2018-07-13T02:51:04.643Z,5.00
2018-07-13T02:53:33.231Z,4.60
2018-07-13T02:56:01.679Z,4.77
2018-07-13T02:58:30.356Z,4.87
2018-07-13T03:00:58.896Z,5.20
2018-07-13T03:03:27.501Z,4.73
2018-07-13T03:05:56.041Z,5.17
2018-07-13T03:08:24.727Z,5.30
2018-07-13T03:10:53.311Z,5.00
2018-07-13T03:13:21.891Z,5.20
2018-07-13T03:15:50.473Z,5.10
2018-07-13T03:18:18.884Z,5.17
2018-07-13T03:20:47.405Z,5.87
2018-07-13T03:23:16.018Z,5.87
2018-07-13T03:25:44.732Z,6.70
2018-07-13T03:28:13.287Z,6.13
2018-07-13T03:30:41.874Z,6.07
2018-07-13T03:33:10.359Z,5.77
2018-07-13T03:35:38.786Z,5.83
2018-07-13T03:38:07.415Z,5.73
2018-07-13T03:40:36.099Z,5.83
2018-07-13T03:43:04.649Z,4.90
2018-07-13T03:45:33.264Z,5.07
2018-07-13T03:48:01.848Z,5.60
2018-07-13T03:50:30.444Z,5.40
2018-07-13T03:52:59.045Z,5.67
2018-07-13T03:55:27.816Z,5.20
2018-07-13T03:57:56.545Z,5.53
2018-07-13T04:00:25.226Z,5.30
2018-07-13T04:02:53.815Z,5.47
2018-07-13T04:05:22.443Z,6.10
2018-07-13T04:07:51.022Z,6.27
2018-07-13T04:10:19.563Z,6.13
2018-07-13T04:12:48.292Z,6.70
2018-07-13T04:15:16.792Z,5.60
2018-07-13T04:17:45.354Z,6.07
2018-07-13T04:20:14.038Z,6.40
2018-07-13T04:22:42.976Z,6.00
2018-07-13T04:25:11.717Z,6.07
2018-07-13T04:27:40.280Z,6.30
2018-07-13T04:30:08.854Z,6.63
2018-07-13T04:32:37.467Z,7.93
2018-07-13T04:35:06.254Z,6.70
2018-07-13T04:37:34.753Z,6.37
2018-07-13T04:40:03.344Z,6.07
2018-07-13T04:42:31.903Z,5.83
2018-07-13T04:45:00.714Z,6.20
2018-07-13T04:47:29.347Z,5.80
2018-07-13T04:49:58.165Z,6.50
2018-07-13T04:52:26.753Z,5.93
2018-07-13T04:54:55.532Z,6.50
2018-07-13T04:57:24.320Z,6.27
2018-07-13T04:59:53.107Z,6.13
2018-07-13T05:02:21.896Z,5.80
2018-07-13T05:04:50.790Z,7.37
2018-07-13T05:07:19.576Z,6.30
2018-07-13T05:09:48.363Z,6.35
2018-07-13T05:12:17.047Z,5.77
2018-07-13T05:14:45.527Z,5.60
2018-07-13T05:17:14.314Z,5.57
2018-07-13T05:19:42.976Z,6.10
2018-07-13T05:22:11.685Z,6.07
2018-07-13T05:24:40.263Z,6.67
2018-07-13T05:27:09.056Z,6.47
2018-07-13T05:29:37.702Z,5.63
2018-07-13T05:32:06.456Z,6.97
2018-07-13T05:34:35.113Z,6.03
2018-07-13T05:37:03.703Z,6.40
2018-07-13T05:39:32.228Z,6.10
2018-07-13T05:42:01.069Z,6.57
2018-07-13T05:44:29.696Z,6.60
2018-07-13T05:46:58.647Z,6.20
2018-07-13T05:49:27.532Z,6.87
2018-07-13T05:51:56.528Z,6.87
2018-07-13T05:54:25.418Z,7.10
2018-07-13T05:56:54.202Z,7.13
2018-07-13T05:59:23.093Z,7.23
2018-07-13T06:01:51.883Z,6.20
2018-07-13T06:04:20.570Z,5.90
2018-07-13T06:06:49.661Z,5.47
2018-07-13T06:09:18.362Z,5.17
2018-07-13T06:11:47.031Z,4.37
2018-07-13T06:14:15.624Z,6.03
2018-07-13T06:16:44.208Z,5.10
2018-07-13T06:19:12.784Z,5.27
2018-07-13T06:21:41.367Z,4.97
2018-07-13T06:24:09.934Z,5.23
2018-07-13T06:26:38.631Z,5.17
2018-07-13T06:29:07.215Z,5.50
2018-07-13T06:31:35.763Z,5.30
2018-07-13T06:34:04.393Z,5.20
2018-07-13T06:36:32.983Z,5.00
2018-07-13T06:39:01.656Z,5.30
2018-07-13T06:41:30.236Z,5.43
2018-07-13T06:43:58.785Z,5.83
2018-07-13T06:46:27.499Z,5.13
2018-07-13T06:48:56.201Z,4.93
2018-07-13T06:51:24.874Z,5.20
2018-07-13T06:53:53.454Z,5.30
2018-07-13T06:56:22.056Z,4.67
2018-07-13T06:58:56.070Z,4.17
2018-07-13T07:01:24.586Z,4.73
2018-07-13T07:04:56.701Z,5.17
2018-07-13T07:07:26.102Z,4.60
2018-07-13T07:09:56.189Z,4.90
2018-07-13T07:13:29.320Z,5.60
2018-07-13T07:15:58.310Z,5.77
2018-07-13T07:18:26.996Z,5.80
2018-07-13T07:20:56.440Z,6.17
2018-07-13T07:23:25.187Z,6.00
2018-07-13T07:25:54.035Z,5.53
2018-07-13T07:28:22.657Z,6.23
2018-07-13T07:30:51.404Z,5.83
2018-07-13T07:33:20.131Z,6.33
2018-07-13T07:35:48.616Z,6.00
2018-07-13T07:38:17.195Z,6.23
2018-07-13T07:40:45.784Z,6.73
2018-07-13T07:43:14.567Z,7.63
2018-07-13T07:45:43.147Z,7.10
2018-07-13T07:48:11.843Z,7.03
2018-07-13T07:50:40.439Z,6.87
2018-07-13T07:53:08.998Z,6.03
2018-07-13T07:55:37.692Z,6.90
2018-07-13T07:58:06.104Z,7.10
2018-07-13T08:00:34.647Z,8.50
2018-07-13T08:03:03.435Z,6.40
2018-07-13T08:05:32.167Z,5.93
2018-07-13T08:08:00.705Z,6.40
2018-07-13T08:10:29.288Z,7.43
2018-07-13T08:12:58.025Z,6.57
2018-07-13T08:15:26.568Z,6.07
2018-07-13T08:17:55.139Z,6.07
2018-07-13T08:20:26.986Z,5.93
2018-07-13T08:22:56.609Z,6.90
2018-07-13T08:25:26.312Z,6.10
2018-07-13T08:27:57.559Z,6.47
2018-07-13T08:30:42.739Z,6.20
2018-07-13T08:33:11.271Z,6.90
2018-07-13T08:35:39.999Z,7.13
2018-07-13T08:38:08.686Z,7.53
2018-07-13T08:40:37.188Z,7.43
2018-07-13T08:43:05.718Z,7.17
2018-07-13T08:45:34.487Z,6.70
2018-07-13T08:48:03.074Z,7.63
2018-07-13T08:50:31.904Z,6.97
2018-07-13T08:53:00.495Z,6.73
2018-07-13T08:55:29.787Z,6.30
2018-07-13T08:57:58.531Z,7.03
2018-07-13T09:00:27.276Z,6.90
2018-07-13T09:02:55.823Z,6.60
2018-07-13T09:05:24.635Z,6.57
2018-07-13T09:07:53.119Z,6.30
2018-07-13T09:10:21.802Z,6.57
2018-07-13T09:12:50.526Z,7.10
2018-07-13T09:15:19.373Z,6.80
2018-07-13T09:17:47.959Z,6.27
2018-07-13T09:20:16.655Z,6.73
2018-07-13T09:22:45.200Z,5.87
2018-07-13T09:25:13.909Z,6.13
2018-07-13T09:27:42.492Z,7.60
2018-07-13T09:30:11.740Z,6.53
2018-07-13T09:32:40.593Z,6.83
2018-07-13T09:35:09.580Z,6.13
2018-07-13T09:37:38.295Z,6.60
2018-07-13T09:40:07.045Z,6.90
2018-07-13T09:42:36.001Z,6.03
2018-07-13T09:45:04.727Z,6.30
2018-07-13T09:47:33.479Z,5.90
2018-07-13T09:50:02.299Z,7.00
2018-07-13T09:52:30.787Z,6.60
2018-07-13T09:54:59.422Z,6.33
2018-07-13T09:57:28.156Z,6.93
2018-07-13T09:59:56.663Z,6.33
2018-07-13T10:02:25.725Z,6.67
2018-07-13T10:04:54.744Z,6.63
2018-07-13T10:07:23.405Z,7.03
2018-07-13T10:09:52.198Z,6.50
2018-07-13T10:12:20.826Z,6.97
2018-07-13T10:14:49.688Z,7.43
2018-07-13T10:17:18.270Z,7.00
2018-07-13T10:19:46.931Z,6.50
2018-07-13T10:22:16.745Z,6.80
2018-07-13T10:24:45.843Z,7.07
2018-07-13T10:27:14.659Z,6.60
2018-07-13T10:29:44.971Z,6.37
2018-07-13T10:32:13.548Z,6.87
2018-07-13T10:34:42.532Z,6.57
2018-07-13T10:37:11.130Z,6.77
2018-07-13T10:39:39.633Z,6.30
2018-07-13T10:42:08.276Z,6.47
2018-07-13T10:44:36.716Z,6.00
2018-07-13T10:47:05.355Z,5.90
2018-07-13T10:49:33.924Z,5.97
2018-07-13T10:52:02.532Z,6.37
2018-07-13T10:54:31.089Z,6.43
2018-07-13T10:56:59.742Z,5.70
2018-07-13T10:59:28.383Z,5.67
2018-07-13T11:01:56.916Z,4.70
2018-07-13T11:04:25.531Z,5.30
2018-07-13T11:06:54.110Z,5.60
2018-07-13T11:09:22.646Z,4.97
2018-07-13T11:11:51.477Z,5.30
2018-07-13T11:14:26.390Z,5.30
2018-07-13T11:16:54.993Z,4.47
2018-07-13T11:19:23.578Z,5.03
2018-07-13T11:21:52.282Z,4.73
2018-07-13T11:24:20.907Z,3.90
2018-07-13T11:26:49.323Z,4.70
2018-07-13T11:29:17.909Z,4.27
2018-07-13T11:31:46.709Z,5.10
2018-07-13T11:34:15.182Z,4.10
2018-07-13T11:36:43.868Z,4.00
2018-07-13T11:39:12.548Z,5.00
2018-07-13T11:41:41.473Z,4.37
2018-07-13T11:44:10.157Z,4.50
2018-07-13T11:46:38.807Z,4.53
2018-07-13T11:49:07.521Z,4.07
2018-07-13T11:51:36.133Z,3.73
2018-07-13T11:54:04.863Z,4.77
2018-07-13T11:56:33.457Z,4.00
2018-07-13T11:59:01.937Z,4.20
2018-07-13T12:01:30.611Z,4.27
2018-07-13T12:03:59.204Z,4.40
2018-07-13T12:06:27.777Z,4.00
2018-07-13T12:08:56.473Z,4.87
2018-07-13T12:11:25.161Z,4.30
2018-07-13T12:13:53.732Z,4.17
2018-07-13T12:16:22.313Z,4.53
2018-07-13T12:18:50.744Z,4.20
2018-07-13T12:21:19.276Z,4.70
2018-07-13T12:23:47.965Z,3.83
2018-07-13T12:26:16.348Z,4.30
2018-07-13T12:28:44.881Z,3.97
2018-07-13T12:31:13.607Z,5.77
2018-07-13T12:33:42.096Z,4.63
2018-07-13T12:36:10.635Z,5.73
2018-07-13T12:38:39.355Z,4.67
2018-07-13T12:41:08.143Z,4.03
2018-07-13T12:43:36.711Z,4.53
2018-07-13T12:46:05.359Z,4.40
2018-07-13T12:48:33.896Z,4.90
2018-07-13T12:51:02.792Z,4.90
2018-07-13T12:53:31.411Z,4.63
2018-07-13T12:56:00.152Z,4.23
2018-07-13T12:58:28.739Z,4.47
2018-07-13T13:00:57.422Z,4.97
2018-07-13T13:03:26.019Z,4.83
2018-07-13T13:05:54.589Z,5.37
2018-07-13T13:08:23.172Z,4.50
2018-07-13T13:10:51.876Z,5.03
2018-07-13T13:13:20.442Z,4.70
2018-07-13T13:15:49.240Z,5.17
2018-07-13T13:18:17.810Z,5.07
2018-07-13T13:20:46.295Z,5.13
2018-07-13T13:23:14.858Z,4.73
2018-07-13T13:25:43.457Z,4.40
2018-07-13T13:28:12.040Z,4.10
2018-07-13T13:30:40.825Z,4.13
2018-07-13T13:33:09.410Z,4.80
2018-07-13T13:35:38.052Z,4.47
2018-07-13T13:38:06.680Z,4.57
2018-07-13T13:40:35.263Z,4.80
2018-07-13T13:43:03.857Z,4.30
2018-07-13T13:45:32.527Z,4.10
2018-07-13T13:48:01.111Z,4.20
2018-07-13T13:50:29.601Z,4.33
2018-07-13T13:52:58.277Z,4.23
2018-07-13T13:55:26.884Z,4.47
2018-07-13T13:57:55.547Z,4.47
2018-07-13T14:00:24.136Z,4.83
2018-07-13T14:02:52.711Z,4.77
2018-07-13T14:05:21.359Z,4.13
2018-07-13T14:07:50.389Z,4.53
2018-07-13T14:10:18.899Z,4.20
2018-07-13T14:12:47.476Z,5.10
2018-07-13T14:15:15.996Z,5.17
2018-07-13T14:17:44.620Z,4.73
2018-07-13T14:20:13.323Z,3.80
2018-07-13T14:22:41.801Z,3.90
2018-07-13T14:25:10.375Z,4.70
2018-07-13T14:27:39.277Z,4.03
2018-07-13T14:30:07.841Z,3.40
2018-07-13T14:32:36.228Z,3.73
2018-07-13T14:35:04.720Z,4.23
2018-07-13T14:37:33.384Z,4.77
2018-07-13T14:40:02.083Z,4.13
2018-07-13T14:42:30.766Z,4.37
2018-07-13T14:44:59.342Z,3.50
2018-07-13T14:47:27.925Z,3.97
2018-07-13T14:49:56.520Z,4.37
2018-07-13T14:52:25.190Z,4.30
2018-07-13T14:54:53.793Z,3.90
2018-07-13T14:57:22.217Z,4.90
2018-07-13T14:59:50.841Z,4.40
2018-07-13T15:02:19.528Z,3.77
2018-07-13T15:04:48.033Z,3.77
2018-07-13T15:07:16.593Z,3.37
2018-07-13T15:09:45.333Z,4.13
2018-07-13T15:12:13.873Z,4.53
2018-07-13T15:14:42.291Z,3.33
2018-07-13T15:17:11.029Z,3.43
2018-07-13T15:19:39.715Z,3.90
2018-07-13T15:22:08.292Z,3.80
2018-07-13T15:24:37.076Z,3.97
2018-07-13T15:27:05.675Z,3.63
2018-07-13T15:29:34.253Z,4.03
2018-07-13T15:32:02.986Z,4.00
2018-07-13T15:34:31.620Z,3.30
2018-07-13T15:37:00.113Z,2.97
2018-07-13T15:39:28.499Z,4.00
2018-07-13T15:41:57.158Z,3.27
2018-07-13T15:44:25.740Z,4.97
2018-07-13T15:46:54.231Z,3.80
2018-07-13T15:49:22.870Z,3.33
2018-07-13T15:51:51.592Z,3.50
2018-07-13T15:54:20.175Z,3.40
2018-07-13T15:56:48.677Z,3.70
2018-07-13T15:59:17.340Z,4.00
2018-07-13T16:01:45.835Z,4.70
2018-07-13T16:04:14.515Z,4.47
2018-07-13T16:06:43.191Z,3.67
2018-07-13T16:09:11.687Z,4.10
2018-07-13T16:11:40.368Z,4.20
2018-07-13T16:14:08.845Z,3.73
2018-07-13T16:16:37.567Z,4.03
2018-07-13T16:19:06.315Z,3.47
2018-07-13T16:21:34.797Z,3.90
2018-07-13T16:24:03.337Z,3.83
2018-07-13T16:26:31.855Z,3.30
2018-07-13T16:29:00.464Z,4.37
2018-07-13T16:31:29.124Z,3.73
2018-07-13T16:33:57.845Z,4.03
2018-07-13T16:36:26.496Z,3.57
2018-07-13T16:38:55.077Z,4.17
2018-07-13T16:41:23.567Z,3.80
2018-07-13T16:43:51.976Z,4.43
2018-07-13T16:46:20.623Z,4.40
2018-07-13T16:48:49.205Z,4.47
2018-07-13T16:51:17.644Z,4.00
2018-07-13T16:53:46.272Z,3.87
2018-07-13T16:56:14.881Z,3.13
2018-07-13T16:58:43.742Z,4.30
2018-07-13T17:01:12.327Z,3.40
2018-07-13T17:03:40.825Z,3.37
2018-07-13T17:06:09.390Z,3.83
2018-07-13T17:08:38.079Z,3.73
2018-07-13T17:11:06.564Z,3.90
2018-07-13T17:13:35.242Z,3.17
2018-07-13T17:16:04.131Z,3.80
2018-07-13T17:18:32.572Z,3.23
2018-07-13T17:21:01.095Z,3.20
2018-07-13T17:23:29.879Z,2.93
2018-07-13T17:25:58.476Z,2.90
2018-07-13T17:28:27.050Z,3.07
2018-07-13T17:30:55.628Z,2.90
2018-07-13T17:33:24.135Z,3.27
2018-07-13T17:35:52.795Z,3.03
2018-07-13T17:38:21.396Z,3.83
2018-07-13T17:40:50.071Z,3.57
2018-07-13T17:43:18.748Z,3.33
2018-07-13T17:45:47.332Z,3.00
2018-07-13T17:48:15.816Z,3.57
2018-07-13T17:50:44.408Z,3.50
2018-07-13T17:53:13.080Z,3.40
2018-07-13T17:55:41.518Z,3.50
2018-07-13T17:58:10.860Z,4.67
2018-07-13T18:00:39.512Z,3.67
2018-07-13T18:03:08.132Z,2.93
2018-07-13T18:05:36.609Z,3.93
2018-07-13T18:08:05.094Z,3.90
2018-07-13T18:10:33.673Z,4.03
2018-07-13T18:13:02.245Z,3.80
2018-07-13T18:15:30.838Z,4.37
2018-07-13T18:17:59.420Z,4.00
2018-07-13T18:20:27.937Z,3.90
2018-07-13T18:22:56.554Z,4.07
2018-07-13T18:25:25.081Z,3.90
2018-07-13T18:27:53.753Z,4.10
2018-07-13T18:30:22.440Z,3.73
2018-07-13T18:32:50.936Z,3.53
2018-07-13T18:35:19.458Z,3.33
2018-07-13T18:37:48.187Z,3.37
2018-07-13T18:40:16.770Z,5.07
2018-07-13T18:42:45.288Z,4.10
2018-07-13T18:45:13.940Z,5.10
2018-07-13T18:47:42.523Z,4.03
2018-07-13T18:50:11.112Z,4.50
2018-07-13T18:52:39.543Z,4.80
2018-07-13T18:55:08.271Z,5.17
2018-07-13T18:57:36.867Z,5.27
2018-07-13T19:00:05.294Z,5.13
2018-07-13T19:02:34.003Z,5.27
2018-07-13T19:05:02.715Z,5.40
2018-07-13T19:07:31.145Z,4.90
2018-07-13T19:09:59.869Z,4.60
2018-07-13T19:12:28.454Z,4.20
2018-07-13T19:14:56.997Z,4.83
2018-07-13T19:17:26.540Z,4.47
2018-07-13T19:19:55.122Z,4.37
2018-07-13T19:22:23.635Z,4.40
2018-07-13T19:24:52.187Z,4.40
2018-07-13T19:27:20.777Z,4.17
2018-07-13T19:29:49.208Z,4.40
2018-07-13T19:32:17.838Z,4.70
2018-07-13T19:34:46.247Z,4.70
2018-07-13T19:37:14.759Z,7.50
2018-07-13T19:39:43.585Z,6.23
2018-07-13T19:42:12.479Z,4.27
2018-07-13T19:44:41.941Z,4.47
2018-07-13T19:47:10.850Z,4.23
2018-07-13T19:49:40.024Z,4.67
2018-07-13T19:52:09.203Z,5.00
2018-07-13T19:54:38.168Z,4.97
2018-07-13T19:57:06.986Z,5.00
2018-07-13T19:59:35.931Z,6.73
2018-07-13T20:02:04.792Z,6.60
2018-07-13T20:04:33.758Z,17.27
2018-07-13T20:07:02.731Z,8.90
2018-07-13T20:09:31.680Z,6.20
2018-07-13T20:12:00.962Z,10.80
2018-07-13T20:14:30.305Z,6.07
2018-07-13T20:17:00.067Z,5.27
2018-07-13T20:19:29.222Z,4.63
2018-07-13T20:21:58.560Z,5.50
2018-07-13T20:24:27.830Z,4.60
2018-07-13T20:26:56.976Z,5.70
2018-07-13T20:29:26.031Z,5.87
2018-07-13T20:31:54.952Z,4.90
2018-07-13T20:34:24.413Z,5.20
2018-07-13T20:36:52.966Z,4.97
2018-07-13T20:39:21.900Z,5.10
2018-07-13T20:41:50.760Z,4.67
2018-07-13T20:44:19.976Z,5.00
2018-07-13T20:46:48.768Z,4.93
2018-07-13T20:49:17.816Z,4.67
2018-07-13T20:51:47.007Z,5.73
2018-07-13T20:54:16.243Z,5.50
2018-07-13T20:56:45.480Z,5.20
2018-07-13T20:59:14.549Z,4.97
2018-07-13T21:01:43.397Z,4.83
2018-07-13T21:04:12.420Z,5.47
2018-07-13T21:06:41.051Z,4.77
2018-07-13T21:09:10.096Z,5.13
2018-07-13T21:11:39.317Z,4.93
2018-07-13T21:14:08.474Z,5.37
2018-07-13T21:16:52.125Z,6.00
2018-07-13T21:19:21.272Z,5.27
2018-07-13T21:21:50.095Z,4.97
2018-07-13T21:24:19.611Z,5.03
2018-07-13T21:26:48.943Z,5.53
2018-07-13T21:29:17.590Z,4.60
2018-07-13T21:31:46.476Z,5.50
2018-07-13T21:34:15.085Z,5.77
2018-07-13T21:36:43.641Z,7.00
2018-07-13T21:39:12.330Z,8.13
2018-07-13T21:41:40.979Z,8.70
2018-07-13T21:44:09.598Z,7.33
2018-07-13T21:46:38.281Z,8.50
2018-07-13T21:49:06.804Z,9.00
2018-07-13T21:51:35.345Z,8.43
2018-07-13T21:54:04.038Z,9.27
2018-07-13T21:56:32.727Z,8.87
2018-07-13T21:59:01.218Z,10.00
2018-07-13T22:01:29.889Z,7.93
2018-07-13T22:03:58.465Z,7.60
2018-07-13T22:06:27.046Z,8.07
2018-07-13T22:08:55.403Z,9.77
2018-07-13T22:11:24.009Z,8.07
2018-07-13T22:13:52.619Z,6.93
2018-07-13T22:16:21.178Z,6.80
2018-07-13T22:18:49.860Z,5.83
2018-07-13T22:21:18.651Z,5.87
2018-07-13T22:23:47.379Z,6.57
2018-07-13T22:26:15.851Z,6.27
2018-07-13T22:28:44.502Z,6.40
2018-07-13T22:31:13.082Z,6.03
2018-07-13T22:33:42.076Z,5.70
2018-07-13T22:36:10.657Z,5.37
2018-07-13T22:38:39.209Z,5.20
2018-07-13T22:41:07.725Z,4.73
2018-07-13T22:43:36.307Z,4.97
2018-07-13T22:46:05.151Z,5.17
2018-07-13T22:48:33.992Z,5.43
2018-07-13T22:51:02.456Z,5.33
2018-07-13T22:53:31.046Z,6.00
2018-07-13T22:55:59.740Z,5.57
2018-07-13T22:58:28.144Z,5.67
2018-07-13T23:00:56.692Z,5.73
2018-07-13T23:03:25.587Z,6.47
2018-07-13T23:05:54.202Z,5.57
2018-07-13T23:08:22.752Z,5.70
2018-07-13T23:10:51.251Z,8.73
2018-07-13T23:13:19.916Z,6.17
2018-07-13T23:15:48.498Z,6.27
2018-07-13T23:18:17.186Z,5.87
2018-07-13T23:20:45.665Z,7.03
2018-07-13T23:23:14.351Z,9.63
2018-07-13T23:25:42.935Z,5.20
2018-07-13T23:28:11.518Z,4.43
2018-07-13T23:30:39.997Z,5.53
2018-07-13T23:33:08.685Z,5.07
2018-07-13T23:35:37.217Z,5.87
2018-07-13T23:38:05.846Z,5.57
2018-07-13T23:40:34.348Z,5.50
2018-07-13T23:43:02.817Z,5.70
2018-07-13T23:45:31.391Z,4.93
2018-07-13T23:48:00.192Z,5.47
2018-07-13T23:50:28.762Z,4.50
2018-07-13T23:52:57.349Z,12.30
2018-07-13T23:55:25.896Z,10.43
2018-07-13T23:57:54.619Z,5.93
